Time;durP1;ratioP1;P1;durP2;ratioP2;P2;SDS_P1;SDS_P2;PMS_P1;PMS_P2;Temp;Humidity;BMP_temperature;BMP_pressure;BME280_temperature;BME280_humidity;BME280_pressure;Samples;Min_cycle;Max_cycle;Signal;HPM_P1;HPM_P2
2022/09/11 00:00:29;;;;;;;13.70;6.28;;;;;;;;;;5056615;28;20142;-51
2022/09/11 00:02:57;;;;;;;11.77;5.22;;;;;;;;;;5056534;28;20049;-50
2022/09/11 00:05:27;;;;;;;11.13;5.55;;;;;;;;;;5056180;28;20059;-51
2022/09/11 00:07:55;;;;;;;14.48;7.40;;;;;;;;;;5055967;28;20505;-51
2022/09/11 00:10:24;;;;;;;12.38;6.43;;;;;;;;;;5055999;28;20132;-52
2022/09/11 00:12:54;;;;;;;13.13;6.78;;;;;;;;;;5055779;28;20148;-49
2022/09/11 00:15:24;;;;;;;10.77;4.97;;;;;;;;;;5062543;28;20048;-49
2022/09/11 00:17:55;;;;;;;12.52;7.03;;;;;;;;;;5055733;28;20057;-49
2022/09/11 00:20:22;;;;;;;14.75;8.38;;;;;;;;;;5072798;28;20044;-51
2022/09/11 00:22:52;;;;;;;10.18;6.28;;;;;;;;;;5075674;28;20059;-48
2022/09/11 00:25:21;;;;;;;10.63;6.25;;;;;;;;;;5072540;28;20067;-51
2022/09/11 00:27:53;;;;;;;13.05;6.70;;;;;;;;;;5075503;28;20052;-48
2022/09/11 00:30:23;;;;;;;12.68;6.38;;;;;;;;;;5075280;28;20049;-50
2022/09/11 00:33:00;;;;;;;13.52;7.43;;;;;;;;;;5075604;28;20052;-50
2022/09/11 00:35:30;;;;;;;9.98;5.72;;;;;;;;;;5075829;28;20048;-49
2022/09/11 00:37:57;;;;;;;14.05;6.60;;;;;;;;;;5075221;28;20508;-49
2022/09/11 00:40:25;;;;;;;10.43;5.95;;;;;;;;;;5075703;28;20052;-49
2022/09/11 00:42:54;;;;;;;11.10;6.28;;;;;;;;;;5075660;28;20079;-51
2022/09/11 00:45:23;;;;;;;18.77;8.32;;;;;;;;;;5075603;28;20052;-49
2022/09/11 00:48:00;;;;;;;11.60;5.85;;;;;;;;;;5075643;28;20144;-50
2022/09/11 00:50:31;;;;;;;13.40;7.70;;;;;;;;;;5075347;28;20049;-48
2022/09/11 00:53:04;;;;;;;12.55;5.70;;;;;;;;;;5066596;28;20115;-48
2022/09/11 00:55:36;;;;;;;11.45;6.25;;;;;;;;;;5055129;28;20045;-48
2022/09/11 00:58:05;;;;;;;12.90;6.38;;;;;;;;;;5055267;28;20068;-49
2022/09/11 01:00:33;;;;;;;12.52;6.75;;;;;;;;;;5054999;28;20465;-49
2022/09/11 01:03:05;;;;;;;13.48;6.57;;;;;;;;;;5055000;28;20057;-50
2022/09/11 01:05:41;;;;;;;15.63;6.70;;;;;;;;;;5054747;28;20516;-48
2022/09/11 01:08:11;;;;;;;10.90;6.03;;;;;;;;;;5055149;28;20075;-48
2022/09/11 01:10:46;;;;;;;12.80;6.72;;;;;;;;;;5054536;28;20538;-49
2022/09/11 01:13:22;;;;;;;10.00;5.82;;;;;;;;;;5054121;28;20065;-49
2022/09/11 01:15:56;;;;;;;13.13;6.80;;;;;;;;;;5060594;28;20454;-49
2022/09/11 01:18:40;;;;;;;14.40;7.10;;;;;;;;;;5054680;28;20053;-52
2022/09/11 01:21:20;;;;;;;11.48;6.63;;;;;;;;;;5054210;28;20132;-49
2022/09/11 01:24:08;;;;;;;10.60;6.10;;;;;;;;;;5061878;28;20505;-51
2022/09/11 01:26:55;;;;;;;11.30;6.53;;;;;;;;;;5074884;28;20102;-50
2022/09/11 01:29:27;;;;;;;12.48;6.30;;;;;;;;;;5074647;28;20108;-48
2022/09/11 01:31:57;;;;;;;14.75;7.03;;;;;;;;;;5074462;28;20457;-50
2022/09/11 01:34:28;;;;;;;14.25;8.13;;;;;;;;;;5074480;28;20525;-49
2022/09/11 01:37:04;;;;;;;12.85;6.55;;;;;;;;;;5074329;28;20052;-48
2022/09/11 01:39:34;;;;;;;11.95;6.63;;;;;;;;;;5074532;28;20083;-50
2022/09/11 01:42:11;;;;;;;16.98;8.95;;;;;;;;;;5074557;28;20052;-49
2022/09/11 01:44:57;;;;;;;16.17;8.07;;;;;;;;;;5074360;28;20064;-51
2022/09/11 01:47:33;;;;;;;14.70;7.72;;;;;;;;;;5074252;28;20052;-52
2022/09/11 01:50:02;;;;;;;16.45;8.10;;;;;;;;;;5073407;28;20044;-49
2022/09/11 01:52:39;;;;;;;16.25;8.10;;;;;;;;;;5065554;28;20040;-50
2022/09/11 01:55:10;;;;;;;11.60;6.70;;;;;;;;;;5074229;28;20052;-49
2022/09/11 01:57:40;;;;;;;11.70;6.43;;;;;;;;;;5074191;28;20151;-51
2022/09/11 02:00:16;;;;;;;12.32;6.65;;;;;;;;;;5074179;28;20114;-50
2022/09/11 02:02:59;;;;;;;12.60;7.10;;;;;;;;;;5074169;28;20055;-51
2022/09/11 02:05:29;;;;;;;15.88;8.32;;;;;;;;;;5074023;28;20059;-51
2022/09/11 02:08:00;;;;;;;13.18;6.93;;;;;;;;;;5074135;28;20062;-51
2022/09/11 02:10:31;;;;;;;13.52;7.10;;;;;;;;;;5073569;28;20378;-48
2022/09/11 02:13:05;;;;;;;12.20;7.20;;;;;;;;;;5073382;28;20469;-49
2022/09/11 02:15:41;;;;;;;16.00;7.70;;;;;;;;;;5065874;28;20377;-48
2022/09/11 02:18:19;;;;;;;13.52;6.90;;;;;;;;;;5053516;28;20079;-52
2022/09/11 02:20:51;;;;;;;14.50;7.85;;;;;;;;;;5066945;28;20098;-51
2022/09/11 02:23:21;;;;;;;16.92;8.18;;;;;;;;;;5073685;28;20106;-49
2022/09/11 02:25:51;;;;;;;13.73;6.35;;;;;;;;;;5073688;28;20064;-49
2022/09/11 02:28:21;;;;;;;10.98;6.10;;;;;;;;;;5073240;28;20740;-50
2022/09/11 02:30:57;;;;;;;10.77;6.07;;;;;;;;;;5073399;28;20041;-50
2022/09/11 02:33:29;;;;;;;12.55;6.38;;;;;;;;;;5073614;28;20052;-48
2022/09/11 02:36:06;;;;;;;14.90;7.53;;;;;;;;;;5073348;28;20056;-49
2022/09/11 02:38:40;;;;;;;9.77;5.13;;;;;;;;;;5073305;28;20472;-49
2022/09/11 02:41:16;;;;;;;9.05;5.18;;;;;;;;;;5073514;28;20045;-49
2022/09/11 02:44:01;;;;;;;12.38;6.10;;;;;;;;;;5073515;28;20048;-50
2022/09/11 02:46:40;;;;;;;10.07;5.60;;;;;;;;;;5073387;28;20067;-48
2022/09/11 02:49:18;;;;;;;11.02;5.75;;;;;;;;;;5073468;28;20063;-48
2022/09/11 02:51:54;;;;;;;10.52;5.95;;;;;;;;;;5073392;28;20052;-49
2022/09/11 02:54:24;;;;;;;10.25;5.13;;;;;;;;;;5053588;28;20049;-49
2022/09/11 02:57:01;;;;;;;9.00;5.00;;;;;;;;;;5052976;28;20512;-48
2022/09/11 02:59:32;;;;;;;14.07;6.82;;;;;;;;;;5053247;28;20052;-49
2022/09/11 03:02:11;;;;;;;9.43;5.60;;;;;;;;;;5053164;28;20136;-48
2022/09/11 03:04:41;;;;;;;9.40;4.85;;;;;;;;;;5052899;28;20084;-52
2022/09/11 03:07:08;;;;;;;13.10;6.72;;;;;;;;;;5053187;28;20057;-53
2022/09/11 03:09:36;;;;;;;12.38;7.32;;;;;;;;;;5052798;28;20456;-52
2022/09/11 03:12:06;;;;;;;10.02;5.75;;;;;;;;;;5052659;28;20068;-49
2022/09/11 03:14:34;;;;;;;12.75;7.35;;;;;;;;;;5053141;28;20053;-51
2022/09/11 03:17:08;;;;;;;15.05;8.13;;;;;;;;;;5063461;28;20056;-48
2022/09/11 03:19:36;;;;;;;10.23;6.05;;;;;;;;;;5062768;28;20086;-49
2022/09/11 03:22:03;;;;;;;16.40;8.05;;;;;;;;;;5052670;28;20466;-50
2022/09/11 03:24:32;;;;;;;12.73;6.70;;;;;;;;;;5052836;28;20532;-48
2022/09/11 03:27:02;;;;;;;11.30;6.25;;;;;;;;;;5052496;28;20508;-50
2022/09/11 03:29:32;;;;;;;15.35;8.55;;;;;;;;;;5053048;28;20096;-50
2022/09/11 03:31:59;;;;;;;10.05;5.90;;;;;;;;;;5052742;28;20053;-49
2022/09/11 03:34:40;;;;;;;15.30;8.63;;;;;;;;;;5052728;28;20436;-49
2022/09/11 03:37:08;;;;;;;14.05;7.75;;;;;;;;;;5052741;28;20485;-49
2022/09/11 03:39:38;;;;;;;12.63;7.07;;;;;;;;;;5052400;28;20065;-49
2022/09/11 03:42:09;;;;;;;12.98;6.50;;;;;;;;;;5052674;28;20204;-49
2022/09/11 03:44:42;;;;;;;12.23;6.75;;;;;;;;;;5052620;28;20388;-48
2022/09/11 03:47:11;;;;;;;13.63;7.35;;;;;;;;;;5052730;28;20140;-49
2022/09/11 03:49:56;;;;;;;14.20;7.53;;;;;;;;;;5052764;28;20056;-49
2022/09/11 03:52:26;;;;;;;13.50;7.90;;;;;;;;;;5056330;28;20080;-49
2022/09/11 03:54:53;;;;;;;12.32;7.18;;;;;;;;;;5072518;28;20529;-48
2022/09/11 03:57:21;;;;;;;14.85;8.15;;;;;;;;;;5072602;28;20059;-52
2022/09/11 03:59:51;;;;;;;16.90;8.73;;;;;;;;;;5072811;28;20048;-49
2022/09/11 04:02:22;;;;;;;12.93;7.50;;;;;;;;;;5072435;28;20044;-50
2022/09/11 04:04:54;;;;;;;12.27;7.03;;;;;;;;;;5072356;28;20060;-50
2022/09/11 04:07:21;;;;;;;12.90;7.35;;;;;;;;;;5072188;28;20056;-49
2022/09/11 04:09:49;;;;;;;11.82;7.38;;;;;;;;;;5072535;28;20102;-52
2022/09/11 04:12:17;;;;;;;22.05;11.88;;;;;;;;;;5071525;28;20473;-52
2022/09/11 04:14:43;;;;;;;23.40;14.38;;;;;;;;;;5074382;28;20053;-48
2022/09/11 04:17:11;;;;;;;30.70;16.85;;;;;;;;;;5069072;28;20102;-48
2022/09/11 04:19:37;;;;;;;33.85;19.90;;;;;;;;;;5064822;28;20060;-52
2022/09/11 04:22:08;;;;;;;34.53;22.50;;;;;;;;;;5056034;28;20049;-49
2022/09/11 04:24:37;;;;;;;41.50;27.17;;;;;;;;;;5056149;28;20057;-48
2022/09/11 04:27:07;;;;;;;39.30;25.00;;;;;;;;;;5055831;28;20056;-51
2022/09/11 04:29:37;;;;;;;21.90;14.95;;;;;;;;;;5055594;28;20053;-49
2022/09/11 04:32:05;;;;;;;20.17;11.23;;;;;;;;;;5055314;28;20111;-49
2022/09/11 04:34:46;;;;;;;13.00;8.38;;;;;;;;;;5054783;28;20053;-50
2022/09/11 04:37:15;;;;;;;13.63;8.43;;;;;;;;;;5055322;28;20053;-49
2022/09/11 04:39:46;;;;;;;10.60;6.45;;;;;;;;;;5055640;28;20377;-47
2022/09/11 04:42:15;;;;;;;9.38;5.95;;;;;;;;;;5055620;28;20080;-49
2022/09/11 04:44:45;;;;;;;12.15;5.70;;;;;;;;;;5055588;28;20057;-49
2022/09/11 04:47:14;;;;;;;8.23;5.70;;;;;;;;;;5055515;28;20048;-50
2022/09/11 04:49:42;;;;;;;6.55;4.88;;;;;;;;;;5055540;28;20052;-49
2022/09/11 04:52:14;;;;;;;13.88;6.45;;;;;;;;;;5056907;28;20057;-49
2022/09/11 04:54:58;;;;;;;9.50;5.70;;;;;;;;;;5075245;28;20381;-49
2022/09/11 04:57:28;;;;;;;8.60;5.32;;;;;;;;;;5075531;28;20052;-49
2022/09/11 04:59:57;;;;;;;10.23;5.35;;;;;;;;;;5074560;28;20048;-49
2022/09/11 05:02:25;;;;;;;9.48;4.88;;;;;;;;;;5074747;28;20641;-49
2022/09/11 05:04:54;;;;;;;9.15;4.20;;;;;;;;;;5075420;28;20057;-49
2022/09/11 05:07:24;;;;;;;8.55;4.25;;;;;;;;;;5074809;28;20369;-48
2022/09/11 05:09:58;;;;;;;7.13;4.20;;;;;;;;;;5075030;28;20067;-48
2022/09/11 05:12:25;;;;;;;7.47;4.25;;;;;;;;;;5074721;28;20056;-48
2022/09/11 05:14:55;;;;;;;8.82;4.13;;;;;;;;;;5072766;28;20063;-49
2022/09/11 05:17:23;;;;;;;6.85;3.85;;;;;;;;;;5071284;28;20056;-49
2022/09/11 05:19:51;;;;;;;8.30;4.82;;;;;;;;;;5062404;28;20067;-50
2022/09/11 05:22:19;;;;;;;6.88;4.43;;;;;;;;;;5054616;28;20067;-49
2022/09/11 05:24:50;;;;;;;9.68;4.00;;;;;;;;;;5053899;28;20098;-53
2022/09/11 05:27:20;;;;;;;8.35;3.72;;;;;;;;;;5054864;28;20143;-48
2022/09/11 05:29:49;;;;;;;7.60;3.85;;;;;;;;;;5054922;28;20060;-48
2022/09/11 05:32:19;;;;;;;7.78;3.60;;;;;;;;;;5054647;28;20080;-49
2022/09/11 05:34:45;;;;;;;6.40;4.13;;;;;;;;;;5054491;28;20272;-51
2022/09/11 05:37:12;;;;;;;9.13;5.38;;;;;;;;;;5054436;28;20068;-50
2022/09/11 05:39:38;;;;;;;6.53;3.72;;;;;;;;;;5054245;28;20469;-49
2022/09/11 05:42:07;;;;;;;5.80;3.50;;;;;;;;;;5053867;28;20060;-48
2022/09/11 05:44:37;;;;;;;6.03;3.33;;;;;;;;;;5054441;28;20115;-52
2022/09/11 05:47:14;;;;;;;6.47;3.42;;;;;;;;;;5054598;28;20056;-49
2022/09/11 05:49:43;;;;;;;4.05;2.95;;;;;;;;;;5054271;28;20056;-50
2022/09/11 05:52:13;;;;;;;5.65;3.00;;;;;;;;;;5056048;28;20044;-51
2022/09/11 05:54:42;;;;;;;5.97;3.55;;;;;;;;;;5074207;28;20094;-52
2022/09/11 05:57:10;;;;;;;12.07;5.13;;;;;;;;;;5074193;28;20079;-53
2022/09/11 05:59:40;;;;;;;8.43;4.38;;;;;;;;;;5073887;28;20056;-48
2022/09/11 06:02:09;;;;;;;13.38;5.95;;;;;;;;;;5074083;28;20041;-50
2022/09/11 06:04:36;;;;;;;18.65;6.13;;;;;;;;;;5073821;28;20081;-48
2022/09/11 06:07:03;;;;;;;9.75;4.65;;;;;;;;;;5072258;28;20057;-48
2022/09/11 06:09:33;;;;;;;7.93;3.92;;;;;;;;;;5073453;28;20088;-48
2022/09/11 06:12:02;;;;;;;7.85;4.35;;;;;;;;;;5073618;28;20067;-49
2022/09/11 06:14:29;;;;;;;6.75;3.65;;;;;;;;;;5073786;28;20048;-51
2022/09/11 06:17:11;;;;;;;6.88;3.60;;;;;;;;;;5066512;28;20102;-49
2022/09/11 06:19:39;;;;;;;6.65;3.28;;;;;;;;;;5062945;28;20087;-48
2022/09/11 06:22:09;;;;;;;7.03;3.25;;;;;;;;;;5053868;28;20049;-48
2022/09/11 06:24:36;;;;;;;7.32;3.53;;;;;;;;;;5053706;28;20057;-50
2022/09/11 06:27:17;;;;;;;8.65;4.72;;;;;;;;;;5053768;28;20139;-48
2022/09/11 06:29:48;;;;;;;7.00;3.80;;;;;;;;;;5053438;28;20610;-51
2022/09/11 06:32:27;;;;;;;6.22;3.22;;;;;;;;;;5053727;28;20045;-50
2022/09/11 06:34:54;;;;;;;8.45;3.60;;;;;;;;;;5053601;28;20178;-48
2022/09/11 06:37:23;;;;;;;10.13;4.55;;;;;;;;;;5053040;28;20045;-48
2022/09/11 06:39:50;;;;;;;5.28;3.10;;;;;;;;;;5053380;28;20057;-48
2022/09/11 06:42:20;;;;;;;12.65;4.40;;;;;;;;;;5052714;28;20051;-49
2022/09/11 06:44:50;;;;;;;6.00;3.63;;;;;;;;;;5053117;28;20057;-49
2022/09/11 06:47:20;;;;;;;7.88;3.78;;;;;;;;;;5053342;28;20049;-48
2022/09/11 06:49:48;;;;;;;7.35;3.60;;;;;;;;;;5053060;28;20057;-50
2022/09/11 06:52:15;;;;;;;6.57;3.63;;;;;;;;;;5055512;28;20098;-51
2022/09/11 06:54:43;;;;;;;7.72;3.95;;;;;;;;;;5073050;28;20059;-50
2022/09/11 06:57:11;;;;;;;10.25;4.60;;;;;;;;;;5072011;28;20065;-49
2022/09/11 06:59:41;;;;;;;6.88;3.22;;;;;;;;;;5073280;28;20060;-48
2022/09/11 07:02:09;;;;;;;7.65;3.30;;;;;;;;;;5072739;28;20052;-49
2022/09/11 07:04:36;;;;;;;5.22;2.65;;;;;;;;;;5072661;28;20048;-48
2022/09/11 07:07:04;;;;;;;6.93;3.17;;;;;;;;;;5072298;28;20139;-50
2022/09/11 07:09:34;;;;;;;9.48;3.30;;;;;;;;;;5072725;28;20061;-50
2022/09/11 07:12:03;;;;;;;6.68;3.50;;;;;;;;;;5072589;28;20067;-49
2022/09/11 07:14:31;;;;;;;4.95;2.53;;;;;;;;;;5072884;28;20049;-50
2022/09/11 07:17:01;;;;;;;4.10;2.45;;;;;;;;;;5066243;28;20055;-48
2022/09/11 07:19:27;;;;;;;7.35;1.70;;;;;;;;;;5063320;28;20059;-49
2022/09/11 07:22:03;;;;;;;3.38;1.77;;;;;;;;;;5052521;28;20041;-49
2022/09/11 07:24:31;;;;;;;5.00;1.77;;;;;;;;;;5052478;28;20429;-49
2022/09/11 07:27:01;;;;;;;4.97;1.88;;;;;;;;;;5052807;28;20060;-49
2022/09/11 07:29:31;;;;;;;4.63;1.90;;;;;;;;;;5052271;28;20418;-49
2022/09/11 07:31:58;;;;;;;7.60;1.77;;;;;;;;;;5052708;28;20163;-49
2022/09/11 07:34:26;;;;;;;4.75;1.90;;;;;;;;;;5052421;28;20103;-49
2022/09/11 07:37:03;;;;;;;2.92;1.65;;;;;;;;;;5052573;28;20056;-49
2022/09/11 07:39:33;;;;;;;6.82;2.20;;;;;;;;;;5052811;28;20052;-53
2022/09/11 07:42:03;;;;;;;4.38;1.67;;;;;;;;;;5052842;28;20148;-49
2022/09/11 07:44:31;;;;;;;4.07;1.30;;;;;;;;;;5052805;28;20053;-49
2022/09/11 07:47:11;;;;;;;5.05;1.85;;;;;;;;;;5052404;28;20044;-49
2022/09/11 07:49:40;;;;;;;2.85;1.67;;;;;;;;;;5056725;28;20049;-49
2022/09/11 07:52:10;;;;;;;2.22;1.08;;;;;;;;;;5056546;28;20051;-49
2022/09/11 07:54:36;;;;;;;4.38;1.25;;;;;;;;;;5065562;28;20060;-48
2022/09/11 07:57:05;;;;;;;3.97;1.63;;;;;;;;;;5059147;28;20056;-48
2022/09/11 07:59:32;;;;;;;4.13;1.90;;;;;;;;;;5076201;28;20056;-48
2022/09/11 08:01:58;;;;;;;3.33;1.52;;;;;;;;;;5064601;28;20049;-51
2022/09/11 08:04:27;;;;;;;4.35;1.60;;;;;;;;;;5075955;28;20110;-49
2022/09/11 08:06:55;;;;;;;3.17;1.33;;;;;;;;;;5076427;28;20062;-49
2022/09/11 08:09:30;;;;;;;5.28;1.35;;;;;;;;;;5061242;28;20079;-48
2022/09/11 08:11:57;;;;;;;2.13;1.40;;;;;;;;;;5056193;28;20474;-49
2022/09/11 08:14:25;;;;;;;3.55;1.40;;;;;;;;;;5065507;28;20768;-49
2022/09/11 08:16:53;;;;;;;4.47;1.48;;;;;;;;;;5071300;28;20159;-49
2022/09/11 08:19:22;;;;;;;3.10;1.45;;;;;;;;;;5070583;28;20044;-52
2022/09/11 08:21:49;;;;;;;3.63;1.65;;;;;;;;;;5075613;28;20057;-49
2022/09/11 08:24:16;;;;;;;3.05;1.30;;;;;;;;;;5061889;28;20056;-48
2022/09/11 08:26:48;;;;;;;4.60;1.67;;;;;;;;;;5065644;28;20052;-49
2022/09/11 08:29:17;;;;;;;2.35;1.40;;;;;;;;;;5064609;28;20514;-49
2022/09/11 08:31:49;;;;;;;2.78;1.45;;;;;;;;;;5073050;28;20056;-48
2022/09/11 08:34:17;;;;;;;3.03;1.40;;;;;;;;;;5076389;28;20133;-51
2022/09/11 08:36:43;;;;;;;4.22;1.80;;;;;;;;;;5074689;28;20080;-51
2022/09/11 08:39:10;;;;;;;4.55;1.88;;;;;;;;;;5074936;28;20106;-49
2022/09/11 08:41:40;;;;;;;2.00;1.40;;;;;;;;;;5075137;28;20045;-50
2022/09/11 08:44:15;;;;;;;3.47;1.45;;;;;;;;;;5076121;28;20090;-49
2022/09/11 08:46:46;;;;;;;5.50;1.77;;;;;;;;;;5057805;28;20052;-49
2022/09/11 08:49:16;;;;;;;2.97;1.27;;;;;;;;;;5057664;28;20529;-48
2022/09/11 08:51:46;;;;;;;3.35;1.45;;;;;;;;;;5075501;28;20052;-50
2022/09/11 08:54:20;;;;;;;3.00;1.45;;;;;;;;;;5063621;28;20047;-48
2022/09/11 08:56:48;;;;;;;6.45;1.40;;;;;;;;;;5058006;28;20369;-50
2022/09/11 08:59:25;;;;;;;3.88;1.13;;;;;;;;;;5067172;28;20067;-51
2022/09/11 09:01:56;;;;;;;10.65;1.90;;;;;;;;;;5068477;28;20464;-50
2022/09/11 09:04:34;;;;;;;2.95;1.10;;;;;;;;;;5072830;28;20048;-50
2022/09/11 09:07:09;;;;;;;2.92;1.30;;;;;;;;;;5055169;28;20053;-49
2022/09/11 09:09:37;;;;;;;;;;;;;;;;;;5075643;28;20049;-50
2022/09/11 09:12:08;;;;;;;1.58;1.08;;;;;;;;;;5073593;28;19924;-49
2022/09/11 09:14:51;;;;;;;2.45;1.20;;;;;;;;;;5073966;28;20397;-52
2022/09/11 09:17:22;;;;;;;2.50;0.90;;;;;;;;;;5055488;28;20052;-49
2022/09/11 09:19:59;;;;;;;4.65;1.25;;;;;;;;;;5062885;28;20060;-49
2022/09/11 09:22:29;;;;;;;3.35;1.02;;;;;;;;;;5061273;28;20529;-49
2022/09/11 09:24:59;;;;;;;3.05;1.02;;;;;;;;;;5057443;28;20060;-49
2022/09/11 09:27:29;;;;;;;2.35;0.95;;;;;;;;;;5058070;28;20131;-51
2022/09/11 09:30:06;;;;;;;2.83;1.02;;;;;;;;;;5063058;28;20378;-49
2022/09/11 09:32:50;;;;;;;3.13;1.27;;;;;;;;;;5056788;28;20063;-49
2022/09/11 09:35:20;;;;;;;3.03;1.10;;;;;;;;;;5066352;28;20484;-49
2022/09/11 09:37:50;;;;;;;3.50;1.50;;;;;;;;;;5064593;28;20492;-50
2022/09/11 09:40:26;;;;;;;2.13;0.95;;;;;;;;;;5073545;28;20543;-49
2022/09/11 09:43:09;;;;;;;4.22;1.00;;;;;;;;;;5056183;28;20059;-49
2022/09/11 09:45:44;;;;;;;2.03;0.93;;;;;;;;;;5042583;28;20055;-49
2022/09/11 09:48:11;;;;;;;4.13;1.00;;;;;;;;;;5054848;28;20055;-49
2022/09/11 09:50:40;;;;;;;2.75;1.40;;;;;;;;;;5058978;28;20061;-53
2022/09/11 09:53:14;;;;;;;3.05;1.35;;;;;;;;;;5058045;28;20053;-50
2022/09/11 09:55:43;;;;;;;3.05;1.23;;;;;;;;;;5056522;28;20057;-51
2022/09/11 09:58:13;;;;;;;3.47;1.00;;;;;;;;;;5073877;28;20102;-49
2022/09/11 10:00:54;;;;;;;2.72;1.10;;;;;;;;;;5072291;28;20052;-47
2022/09/11 10:03:35;;;;;;;1.70;0.90;;;;;;;;;;5054335;28;20055;-52
2022/09/11 10:06:02;;;;;;;3.33;1.20;;;;;;;;;;5071289;28;20086;-48
2022/09/11 10:08:35;;;;;;;2.55;0.70;;;;;;;;;;5073522;28;20404;-51
2022/09/11 10:11:05;;;;;;;2.43;0.93;;;;;;;;;;5059426;28;20365;-52
2022/09/11 10:13:33;;;;;;;3.40;1.00;;;;;;;;;;5061014;28;20085;-48
2022/09/11 10:16:09;;;;;;;2.72;1.10;;;;;;;;;;5065238;28;20045;-49
2022/09/11 10:18:45;;;;;;;3.10;0.98;;;;;;;;;;5074068;28;20052;-50
2022/09/11 10:21:22;;;;;;;3.95;1.20;;;;;;;;;;5073562;28;20141;-49
2022/09/11 10:23:53;;;;;;;2.58;1.25;;;;;;;;;;5073958;28;20048;-50
2022/09/11 10:26:24;;;;;;;2.95;1.13;;;;;;;;;;5073579;28;20461;-50
2022/09/11 10:28:51;;;;;;;1.83;1.10;;;;;;;;;;5074024;28;20048;-52
2022/09/11 10:31:21;;;;;;;4.18;1.05;;;;;;;;;;5072346;28;20063;-51
2022/09/11 10:33:58;;;;;;;3.65;1.10;;;;;;;;;;5075055;28;20049;-52
2022/09/11 10:36:29;;;;;;;1.92;0.93;;;;;;;;;;5069624;28;20056;-52
2022/09/11 10:38:59;;;;;;;2.42;1.20;;;;;;;;;;5072806;28;20127;-50
2022/09/11 10:41:27;;;;;;;2.40;1.17;;;;;;;;;;5069629;28;20053;-50
2022/09/11 10:43:58;;;;;;;2.47;0.98;;;;;;;;;;5053803;28;20059;-50
2022/09/11 10:46:36;;;;;;;2.67;1.08;;;;;;;;;;5070451;28;20439;-49
2022/09/11 10:49:18;;;;;;;2.33;0.95;;;;;;;;;;5073483;28;20109;-50
2022/09/11 10:51:58;;;;;;;2.03;0.95;;;;;;;;;;5072520;28;20059;-50
2022/09/11 10:54:31;;;;;;;2.42;1.10;;;;;;;;;;5067020;28;20052;-50
2022/09/11 10:57:05;;;;;;;2.88;1.10;;;;;;;;;;5065871;28;20048;-49
2022/09/11 10:59:40;;;;;;;3.70;1.00;;;;;;;;;;5059655;28;20063;-49
2022/09/11 11:02:14;;;;;;;2.97;1.45;;;;;;;;;;5072634;28;20056;-50
2022/09/11 11:04:44;;;;;;;2.05;1.40;;;;;;;;;;5073404;28;20481;-51
2022/09/11 11:07:16;;;;;;;4.70;1.10;;;;;;;;;;5072905;28;20098;-49
2022/09/11 11:09:55;;;;;;;2.03;0.90;;;;;;;;;;5073223;28;20063;-49
2022/09/11 11:12:33;;;;;;;2.50;1.00;;;;;;;;;;5073438;28;20065;-49
2022/09/11 11:15:17;;;;;;;3.03;0.85;;;;;;;;;;5069942;28;20044;-48
2022/09/11 11:17:50;;;;;;;3.67;1.17;;;;;;;;;;5053088;28;20469;-48
2022/09/11 11:20:24;;;;;;;1.20;0.73;;;;;;;;;;5052605;28;20351;-48
2022/09/11 11:23:12;;;;;;;3.72;1.00;;;;;;;;;;5054415;28;20052;-48
2022/09/11 11:25:49;;;;;;;1.83;1.00;;;;;;;;;;5057330;28;20068;-49
2022/09/11 11:28:41;;;;;;;2.17;0.85;;;;;;;;;;5057525;28;20053;-49
2022/09/11 11:31:11;;;;;;;2.70;0.93;;;;;;;;;;5057053;28;20394;-50
2022/09/11 11:33:50;;;;;;;2.78;0.90;;;;;;;;;;5057349;28;20052;-49
2022/09/11 11:36:25;;;;;;;2.90;0.93;;;;;;;;;;5074972;28;20389;-50
2022/09/11 11:38:59;;;;;;;3.05;1.02;;;;;;;;;;5077401;28;20048;-49
2022/09/11 11:41:36;;;;;;;3.93;1.10;;;;;;;;;;5076880;28;20430;-49
2022/09/11 11:44:08;;;;;;;3.38;1.08;;;;;;;;;;5076853;28;20059;-48
2022/09/11 11:46:40;;;;;;;1.33;0.73;;;;;;;;;;5076902;28;20453;-49
2022/09/11 11:49:13;;;;;;;1.98;1.05;;;;;;;;;;5064873;28;20044;-49
2022/09/11 11:51:57;;;;;;;3.83;1.17;;;;;;;;;;5065334;28;20048;-48
2022/09/11 11:54:29;;;;;;;2.20;0.80;;;;;;;;;;5056945;28;20071;-49
2022/09/11 11:56:59;;;;;;;4.00;1.13;;;;;;;;;;5056399;28;20386;-49
2022/09/11 11:59:37;;;;;;;3.30;1.00;;;;;;;;;;5069121;28;20385;-50
2022/09/11 12:02:06;;;;;;;3.15;0.90;;;;;;;;;;5064619;28;20056;-49
2022/09/11 12:04:41;;;;;;;3.33;1.00;;;;;;;;;;5068924;28;20052;-48
2022/09/11 12:07:14;;;;;;;3.00;1.08;;;;;;;;;;5076461;28;20054;-50
2022/09/11 12:09:46;;;;;;;1.70;0.82;;;;;;;;;;5069812;28;20053;-49
2022/09/11 12:12:15;;;;;;;2.10;0.93;;;;;;;;;;5062801;28;20134;-50
2022/09/11 12:14:48;;;;;;;1.50;0.80;;;;;;;;;;5061678;28;20045;-49
2022/09/11 12:17:18;;;;;;;2.35;0.90;;;;;;;;;;5054574;28;20060;-48
2022/09/11 12:20:04;;;;;;;6.28;1.30;;;;;;;;;;5054647;28;20049;-48
2022/09/11 12:22:38;;;;;;;1.98;0.73;;;;;;;;;;5054033;28;20111;-50
2022/09/11 12:25:05;;;;;;;5.18;1.30;;;;;;;;;;5054820;28;20159;-50
2022/09/11 12:27:51;;;;;;;3.75;1.60;;;;;;;;;;5054541;28;20052;-48
2022/09/11 12:30:26;;;;;;;5.15;0.95;;;;;;;;;;5053554;28;20053;-51
2022/09/11 12:32:53;;;;;;;4.07;1.85;;;;;;;;;;5054040;28;20052;-50
2022/09/11 12:35:37;;;;;;;2.00;1.00;;;;;;;;;;5053783;28;20385;-49
2022/09/11 12:38:19;;;;;;;4.55;1.02;;;;;;;;;;5055699;28;20381;-50
2022/09/11 12:40:50;;;;;;;3.53;0.98;;;;;;;;;;5074598;28;20044;-50
2022/09/11 12:43:26;;;;;;;3.63;0.90;;;;;;;;;;5074090;28;20758;-49
2022/09/11 12:45:57;;;;;;;1.50;0.80;;;;;;;;;;5074652;28;20373;-50
2022/09/11 12:48:36;;;;;;;3.03;1.30;;;;;;;;;;5075691;28;20049;-51
2022/09/11 12:51:07;;;;;;;2.17;1.00;;;;;;;;;;5075545;28;20057;-49
2022/09/11 12:53:44;;;;;;;2.95;1.23;;;;;;;;;;5062022;28;20064;-48
2022/09/11 12:56:17;;;;;;;3.15;1.40;;;;;;;;;;5055436;28;20118;-49
2022/09/11 12:58:46;;;;;;;2.70;0.98;;;;;;;;;;5061021;28;20048;-49
2022/09/11 13:01:24;;;;;;;4.63;1.25;;;;;;;;;;5075413;28;20048;-49
2022/09/11 13:03:56;;;;;;;4.05;1.10;;;;;;;;;;5075395;28;20081;-49
2022/09/11 13:06:33;;;;;;;2.40;1.00;;;;;;;;;;5075029;28;20063;-50
2022/09/11 13:09:09;;;;;;;1.45;0.73;;;;;;;;;;5075191;28;20080;-49
2022/09/11 13:11:47;;;;;;;2.17;1.00;;;;;;;;;;5075141;28;20062;-49
2022/09/11 13:14:37;;;;;;;1.67;0.73;;;;;;;;;;5074491;28;20074;-49
2022/09/11 13:17:14;;;;;;;2.67;1.20;;;;;;;;;;5063299;28;20080;-50
2022/09/11 13:19:44;;;;;;;3.58;1.15;;;;;;;;;;5065865;28;20079;-49
2022/09/11 13:22:20;;;;;;;3.38;1.33;;;;;;;;;;5067703;28;20064;-49
2022/09/11 13:24:51;;;;;;;3.88;1.58;;;;;;;;;;5072718;28;20520;-48
2022/09/11 13:27:22;;;;;;;3.33;1.23;;;;;;;;;;5066033;28;20065;-48
2022/09/11 13:29:50;;;;;;;3.17;1.23;;;;;;;;;;5058782;28;20040;-48
2022/09/11 13:32:18;;;;;;;3.45;1.45;;;;;;;;;;5067924;28;20103;-48
2022/09/11 13:34:50;;;;;;;4.43;1.20;;;;;;;;;;5064368;28;20067;-51
2022/09/11 13:37:27;;;;;;;1.48;0.73;;;;;;;;;;5059692;28;20053;-50
2022/09/11 13:40:03;;;;;;;5.43;1.10;;;;;;;;;;5073488;28;20358;-49
2022/09/11 13:42:34;;;;;;;3.88;1.65;;;;;;;;;;5071080;28;20048;-49
2022/09/11 13:45:11;;;;;;;1.83;1.10;;;;;;;;;;5073137;28;20580;-48
2022/09/11 13:47:47;;;;;;;5.47;1.50;;;;;;;;;;5070418;28;20044;-48
2022/09/11 13:50:16;;;;;;;3.50;1.27;;;;;;;;;;5064299;28;20148;-51
2022/09/11 13:52:47;;;;;;;4.25;1.30;;;;;;;;;;5072185;28;20381;-49
2022/09/11 13:55:31;;;;;;;3.08;1.13;;;;;;;;;;5060641;28;20133;-48
2022/09/11 13:58:03;;;;;;;3.03;1.00;;;;;;;;;;5060925;28;20107;-48
2022/09/11 14:00:36;;;;;;;2.33;0.88;;;;;;;;;;5066658;28;20049;-51
2022/09/11 14:03:13;;;;;;;2.30;1.00;;;;;;;;;;5061343;28;20045;-48
2022/09/11 14:05:49;;;;;;;1.58;1.10;;;;;;;;;;5065868;28;20079;-49
2022/09/11 14:08:23;;;;;;;3.72;1.13;;;;;;;;;;5070051;28;20057;-50
2022/09/11 14:10:55;;;;;;;2.50;1.38;;;;;;;;;;5064431;28;20055;-51
2022/09/11 14:13:27;;;;;;;2.28;1.00;;;;;;;;;;5064165;28;20721;-50
2022/09/11 14:15:56;;;;;;;4.57;1.10;;;;;;;;;;5065223;28;20037;-49
2022/09/11 14:18:30;;;;;;;3.63;1.20;;;;;;;;;;5059119;28;20500;-48
2022/09/11 14:20:59;;;;;;;2.53;1.30;;;;;;;;;;5059143;28;20049;-48
2022/09/11 14:23:30;;;;;;;2.75;1.00;;;;;;;;;;5063665;28;20469;-50
2022/09/11 14:26:14;;;;;;;3.03;1.15;;;;;;;;;;5053200;28;20134;-48
2022/09/11 14:28:56;;;;;;;4.20;1.20;;;;;;;;;;5066543;28;20065;-48
2022/09/11 14:31:36;;;;;;;6.88;1.30;;;;;;;;;;5060661;28;20110;-49
2022/09/11 14:34:13;;;;;;;5.03;1.17;;;;;;;;;;5057741;28;20060;-48
2022/09/11 14:36:45;;;;;;;4.85;1.13;;;;;;;;;;5057626;28;20136;-49
2022/09/11 14:39:22;;;;;;;1.90;1.17;;;;;;;;;;5063833;28;20409;-50
2022/09/11 14:41:54;;;;;;;1.55;0.80;;;;;;;;;;5066827;28;20052;-50
2022/09/11 14:44:25;;;;;;;2.13;0.80;;;;;;;;;;5055876;28;20489;-49
2022/09/11 14:46:51;;;;;;;3.92;1.00;;;;;;;;;;5067328;28;20110;-49
2022/09/11 14:49:17;;;;;;;1.45;0.90;;;;;;;;;;5062568;28;20060;-50
2022/09/11 14:51:48;;;;;;;2.92;1.30;;;;;;;;;;5060106;28;20048;-50
2022/09/11 14:54:25;;;;;;;6.75;1.48;;;;;;;;;;5055092;28;20473;-52
2022/09/11 14:57:00;;;;;;;2.58;1.13;;;;;;;;;;5067063;28;20049;-50
2022/09/11 14:59:28;;;;;;;;;;;;;;;;;;5054685;28;20063;-48
2022/09/11 15:01:57;;;;;;;2.95;0.90;;;;;;;;;;5053123;28;20065;-50
2022/09/11 15:04:28;;;;;;;2.60;1.30;;;;;;;;;;5069082;28;20059;-48
2022/09/11 15:06:58;;;;;;;3.13;0.98;;;;;;;;;;5059381;28;20063;-48